sensor_id;sensor_type;location;lat;lon;timestamp;P1;durP1;ratioP1;P2;durP2;ratioP2
80136;SDS011;69466;55.948;37.484;2023-06-14T00:00:58;14.77;;;6.20;;
80136;SDS011;69466;55.948;37.484;2023-06-14T00:03:24;10.32;;;5.68;;
80136;SDS011;69466;55.948;37.484;2023-06-14T00:05:51;10.40;;;5.53;;
80136;SDS011;69466;55.948;37.484;2023-06-14T00:08:17;11.50;;;6.32;;
80136;SDS011;69466;55.948;37.484;2023-06-14T00:10:44;8.82;;;6.03;;
80136;SDS011;69466;55.948;37.484;2023-06-14T00:13:10;12.70;;;6.70;;
80136;SDS011;69466;55.948;37.484;2023-06-14T00:15:37;11.02;;;6.82;;
80136;SDS011;69466;55.948;37.484;2023-06-14T00:18:03;10.43;;;6.20;;
80136;SDS011;69466;55.948;37.484;2023-06-14T00:20:30;11.68;;;6.35;;
80136;SDS011;69466;55.948;37.484;2023-06-14T00:23:01;9.15;;;5.78;;
80136;SDS011;69466;55.948;37.484;2023-06-14T00:25:27;9.43;;;5.35;;
80136;SDS011;69466;55.948;37.484;2023-06-14T00:27:54;12.15;;;5.90;;
80136;SDS011;69466;55.948;37.484;2023-06-14T00:30:20;10.85;;;5.97;;
80136;SDS011;69466;55.948;37.484;2023-06-14T00:32:47;10.15;;;5.95;;
80136;SDS011;69466;55.948;37.484;2023-06-14T00:35:13;11.40;;;6.65;;
80136;SDS011;69466;55.948;37.484;2023-06-14T00:37:39;12.75;;;6.28;;
80136;SDS011;69466;55.948;37.484;2023-06-14T00:40:05;14.65;;;6.78;;
80136;SDS011;69466;55.948;37.484;2023-06-14T00:42:32;11.15;;;6.18;;
80136;SDS011;69466;55.948;37.484;2023-06-14T00:44:59;9.52;;;6.57;;
80136;SDS011;69466;55.948;37.484;2023-06-14T00:47:25;11.38;;;5.85;;
80136;SDS011;69466;55.948;37.484;2023-06-14T00:49:53;14.57;;;6.47;;
80136;SDS011;69466;55.948;37.484;2023-06-14T00:52:20;10.48;;;5.95;;
80136;SDS011;69466;55.948;37.484;2023-06-14T00:54:50;11.55;;;5.82;;
80136;SDS011;69466;55.948;37.484;2023-06-14T00:57:16;12.98;;;6.07;;
80136;SDS011;69466;55.948;37.484;2023-06-14T00:59:44;12.10;;;5.97;;
80136;SDS011;69466;55.948;37.484;2023-06-14T01:02:14;13.52;;;6.25;;
80136;SDS011;69466;55.948;37.484;2023-06-14T01:04:46;10.65;;;5.65;;
80136;SDS011;69466;55.948;37.484;2023-06-14T01:13:15;11.40;;;5.82;;
80136;SDS011;69466;55.948;37.484;2023-06-14T01:15:47;8.77;;;6.00;;
80136;SDS011;69466;55.948;37.484;2023-06-14T01:18:13;12.50;;;6.18;;
80136;SDS011;69466;55.948;37.484;2023-06-14T01:20:45;10.77;;;5.68;;
80136;SDS011;69466;55.948;37.484;2023-06-14T01:23:17;12.00;;;6.45;;
80136;SDS011;69466;55.948;37.484;2023-06-14T01:25:43;13.32;;;5.88;;
80136;SDS011;69466;55.948;37.484;2023-06-14T01:28:11;11.40;;;5.82;;
80136;SDS011;69466;55.948;37.484;2023-06-14T01:30:39;8.30;;;5.38;;
80136;SDS011;69466;55.948;37.484;2023-06-14T01:33:22;9.90;;;5.30;;
80136;SDS011;69466;55.948;37.484;2023-06-14T01:35:51;11.25;;;5.25;;
80136;SDS011;69466;55.948;37.484;2023-06-14T01:38:19;10.40;;;5.32;;
80136;SDS011;69466;55.948;37.484;2023-06-14T01:40:47;11.02;;;5.68;;
80136;SDS011;69466;55.948;37.484;2023-06-14T01:43:14;10.02;;;5.03;;
80136;SDS011;69466;55.948;37.484;2023-06-14T01:45:41;7.43;;;4.70;;
80136;SDS011;69466;55.948;37.484;2023-06-14T01:48:09;8.77;;;4.60;;
80136;SDS011;69466;55.948;37.484;2023-06-14T01:50:35;7.95;;;5.38;;
80136;SDS011;69466;55.948;37.484;2023-06-14T01:53:05;7.70;;;4.50;;
80136;SDS011;69466;55.948;37.484;2023-06-14T01:55:36;9.73;;;4.97;;
80136;SDS011;69466;55.948;37.484;2023-06-14T01:58:06;9.55;;;5.07;;
80136;SDS011;69466;55.948;37.484;2023-06-14T02:00:32;8.68;;;4.38;;
80136;SDS011;69466;55.948;37.484;2023-06-14T02:02:58;9.85;;;4.38;;
80136;SDS011;69466;55.948;37.484;2023-06-14T02:05:26;11.63;;;4.88;;
80136;SDS011;69466;55.948;37.484;2023-06-14T02:07:53;7.43;;;4.30;;
80136;SDS011;69466;55.948;37.484;2023-06-14T02:10:20;7.57;;;4.38;;
80136;SDS011;69466;55.948;37.484;2023-06-14T02:12:47;7.13;;;4.57;;
80136;SDS011;69466;55.948;37.484;2023-06-14T02:15:13;8.30;;;4.32;;
80136;SDS011;69466;55.948;37.484;2023-06-14T02:17:42;7.68;;;4.78;;
80136;SDS011;69466;55.948;37.484;2023-06-14T02:20:09;9.13;;;5.22;;
80136;SDS011;69466;55.948;37.484;2023-06-14T02:22:35;8.60;;;4.85;;
80136;SDS011;69466;55.948;37.484;2023-06-14T02:25:02;11.15;;;5.15;;
80136;SDS011;69466;55.948;37.484;2023-06-14T02:27:29;10.35;;;5.07;;
80136;SDS011;69466;55.948;37.484;2023-06-14T02:29:55;9.32;;;4.88;;
80136;SDS011;69466;55.948;37.484;2023-06-14T02:32:21;9.10;;;5.38;;
80136;SDS011;69466;55.948;37.484;2023-06-14T02:34:46;11.52;;;5.30;;
80136;SDS011;69466;55.948;37.484;2023-06-14T02:37:18;9.27;;;5.40;;
80136;SDS011;69466;55.948;37.484;2023-06-14T02:39:45;12.38;;;4.63;;
80136;SDS011;69466;55.948;37.484;2023-06-14T02:42:11;9.82;;;4.85;;
80136;SDS011;69466;55.948;37.484;2023-06-14T02:44:37;8.48;;;4.90;;
80136;SDS011;69466;55.948;37.484;2023-06-14T02:47:03;6.30;;;4.00;;
80136;SDS011;69466;55.948;37.484;2023-06-14T02:49:31;8.45;;;4.93;;
80136;SDS011;69466;55.948;37.484;2023-06-14T02:51:58;8.75;;;4.50;;
80136;SDS011;69466;55.948;37.484;2023-06-14T02:54:23;7.60;;;4.10;;
80136;SDS011;69466;55.948;37.484;2023-06-14T02:56:50;9.98;;;4.47;;
80136;SDS011;69466;55.948;37.484;2023-06-14T02:59:16;7.85;;;4.20;;
80136;SDS011;69466;55.948;37.484;2023-06-14T03:01:42;8.30;;;4.78;;
80136;SDS011;69466;55.948;37.484;2023-06-14T03:04:12;11.05;;;4.22;;
80136;SDS011;69466;55.948;37.484;2023-06-14T03:06:39;7.57;;;3.97;;
80136;SDS011;69466;55.948;37.484;2023-06-14T03:09:06;7.68;;;3.85;;
80136;SDS011;69466;55.948;37.484;2023-06-14T03:11:36;8.75;;;4.55;;
80136;SDS011;69466;55.948;37.484;2023-06-14T03:14:03;8.80;;;4.45;;
80136;SDS011;69466;55.948;37.484;2023-06-14T03:16:30;10.57;;;4.38;;
80136;SDS011;69466;55.948;37.484;2023-06-14T03:18:58;9.45;;;4.75;;
80136;SDS011;69466;55.948;37.484;2023-06-14T03:21:27;7.05;;;3.67;;
80136;SDS011;69466;55.948;37.484;2023-06-14T03:23:57;8.18;;;4.43;;
80136;SDS011;69466;55.948;37.484;2023-06-14T03:26:24;7.97;;;4.32;;
80136;SDS011;69466;55.948;37.484;2023-06-14T03:28:52;6.95;;;4.47;;
80136;SDS011;69466;55.948;37.484;2023-06-14T03:31:19;7.60;;;4.22;;
80136;SDS011;69466;55.948;37.484;2023-06-14T03:33:45;7.50;;;3.85;;
80136;SDS011;69466;55.948;37.484;2023-06-14T03:36:12;5.80;;;3.53;;
80136;SDS011;69466;55.948;37.484;2023-06-14T03:38:39;6.70;;;3.95;;
80136;SDS011;69466;55.948;37.484;2023-06-14T03:41:05;6.85;;;3.60;;
80136;SDS011;69466;55.948;37.484;2023-06-14T03:43:32;7.82;;;4.07;;
80136;SDS011;69466;55.948;37.484;2023-06-14T03:45:59;8.65;;;3.60;;
80136;SDS011;69466;55.948;37.484;2023-06-14T03:48:25;7.35;;;3.50;;
80136;SDS011;69466;55.948;37.484;2023-06-14T03:50:52;8.20;;;3.88;;
80136;SDS011;69466;55.948;37.484;2023-06-14T03:53:20;7.25;;;4.00;;
80136;SDS011;69466;55.948;37.484;2023-06-14T03:55:49;8.10;;;4.05;;
80136;SDS011;69466;55.948;37.484;2023-06-14T03:58:20;7.97;;;3.80;;
80136;SDS011;69466;55.948;37.484;2023-06-14T04:00:46;5.90;;;3.33;;
80136;SDS011;69466;55.948;37.484;2023-06-14T04:03:12;6.38;;;4.18;;
80136;SDS011;69466;55.948;37.484;2023-06-14T04:05:41;6.78;;;3.50;;
80136;SDS011;69466;55.948;37.484;2023-06-14T04:08:08;6.75;;;3.30;;
80136;SDS011;69466;55.948;37.484;2023-06-14T04:10:35;6.95;;;3.78;;
80136;SDS011;69466;55.948;37.484;2023-06-14T04:13:03;7.53;;;3.53;;
80136;SDS011;69466;55.948;37.484;2023-06-14T04:15:30;6.03;;;3.28;;
80136;SDS011;69466;55.948;37.484;2023-06-14T04:17:57;6.72;;;3.95;;
80136;SDS011;69466;55.948;37.484;2023-06-14T04:20:23;5.68;;;3.47;;
80136;SDS011;69466;55.948;37.484;2023-06-14T04:22:50;5.80;;;3.38;;
80136;SDS011;69466;55.948;37.484;2023-06-14T04:25:18;6.82;;;3.28;;
80136;SDS011;69466;55.948;37.484;2023-06-14T04:27:45;5.95;;;3.40;;
80136;SDS011;69466;55.948;37.484;2023-06-14T04:30:12;7.72;;;3.70;;
80136;SDS011;69466;55.948;37.484;2023-06-14T04:32:47;6.90;;;3.38;;
80136;SDS011;69466;55.948;37.484;2023-06-14T04:35:14;5.00;;;3.10;;
80136;SDS011;69466;55.948;37.484;2023-06-14T04:37:43;6.00;;;3.30;;
80136;SDS011;69466;55.948;37.484;2023-06-14T04:40:11;6.57;;;3.30;;
80136;SDS011;69466;55.948;37.484;2023-06-14T04:42:39;7.10;;;3.13;;
80136;SDS011;69466;55.948;37.484;2023-06-14T04:45:07;5.60;;;3.00;;
80136;SDS011;69466;55.948;37.484;2023-06-14T04:47:35;9.90;;;3.50;;
80136;SDS011;69466;55.948;37.484;2023-06-14T04:50:05;5.72;;;2.95;;
80136;SDS011;69466;55.948;37.484;2023-06-14T04:52:31;6.05;;;3.05;;
80136;SDS011;69466;55.948;37.484;2023-06-14T04:54:59;7.82;;;3.10;;
80136;SDS011;69466;55.948;37.484;2023-06-14T04:57:26;6.05;;;2.78;;
80136;SDS011;69466;55.948;37.484;2023-06-14T04:59:56;4.47;;;2.72;;
80136;SDS011;69466;55.948;37.484;2023-06-14T05:02:24;7.72;;;3.00;;
80136;SDS011;69466;55.948;37.484;2023-06-14T05:04:53;5.53;;;3.05;;
80136;SDS011;69466;55.948;37.484;2023-06-14T05:07:19;6.70;;;3.13;;
80136;SDS011;69466;55.948;37.484;2023-06-14T05:09:47;6.68;;;3.65;;
80136;SDS011;69466;55.948;37.484;2023-06-14T05:12:13;6.25;;;2.80;;
80136;SDS011;69466;55.948;37.484;2023-06-14T05:14:43;5.57;;;3.10;;
80136;SDS011;69466;55.948;37.484;2023-06-14T05:17:09;19.08;;;3.65;;
80136;SDS011;69466;55.948;37.484;2023-06-14T05:19:35;5.43;;;2.88;;
80136;SDS011;69466;55.948;37.484;2023-06-14T05:22:01;5.30;;;2.92;;
80136;SDS011;69466;55.948;37.484;2023-06-14T05:24:28;5.53;;;2.80;;
80136;SDS011;69466;55.948;37.484;2023-06-14T05:26:57;6.43;;;2.63;;
80136;SDS011;69466;55.948;37.484;2023-06-14T05:29:23;7.65;;;3.20;;
80136;SDS011;69466;55.948;37.484;2023-06-14T05:31:49;9.95;;;2.90;;
80136;SDS011;69466;55.948;37.484;2023-06-14T05:34:15;5.82;;;3.15;;
80136;SDS011;69466;55.948;37.484;2023-06-14T05:36:41;14.15;;;3.17;;
80136;SDS011;69466;55.948;37.484;2023-06-14T05:39:06;8.65;;;3.33;;
80136;SDS011;69466;55.948;37.484;2023-06-14T05:41:33;13.65;;;3.55;;
80136;SDS011;69466;55.948;37.484;2023-06-14T05:43:59;8.13;;;3.10;;
80136;SDS011;69466;55.948;37.484;2023-06-14T05:46:26;8.85;;;3.20;;
80136;SDS011;69466;55.948;37.484;2023-06-14T05:48:52;5.28;;;3.20;;
80136;SDS011;69466;55.948;37.484;2023-06-14T05:51:18;10.25;;;2.80;;
80136;SDS011;69466;55.948;37.484;2023-06-14T05:53:45;9.18;;;3.00;;
80136;SDS011;69466;55.948;37.484;2023-06-14T05:56:12;5.28;;;2.38;;
80136;SDS011;69466;55.948;37.484;2023-06-14T05:58:38;8.68;;;3.15;;
80136;SDS011;69466;55.948;37.484;2023-06-14T06:01:04;6.85;;;2.72;;
80136;SDS011;69466;55.948;37.484;2023-06-14T06:03:30;8.63;;;2.90;;
80136;SDS011;69466;55.948;37.484;2023-06-14T06:05:55;8.43;;;3.17;;
80136;SDS011;69466;55.948;37.484;2023-06-14T06:08:21;7.40;;;2.97;;
80136;SDS011;69466;55.948;37.484;2023-06-14T06:10:47;7.63;;;3.88;;
80136;SDS011;69466;55.948;37.484;2023-06-14T06:13:13;6.38;;;2.72;;
80136;SDS011;69466;55.948;37.484;2023-06-14T06:15:38;11.32;;;3.50;;
80136;SDS011;69466;55.948;37.484;2023-06-14T06:18:04;7.25;;;3.25;;
80136;SDS011;69466;55.948;37.484;2023-06-14T06:20:30;5.53;;;2.83;;
80136;SDS011;69466;55.948;37.484;2023-06-14T06:22:57;7.25;;;3.22;;
80136;SDS011;69466;55.948;37.484;2023-06-14T06:25:27;8.77;;;3.30;;
80136;SDS011;69466;55.948;37.484;2023-06-14T06:27:54;9.80;;;3.00;;
80136;SDS011;69466;55.948;37.484;2023-06-14T06:30:23;5.68;;;2.80;;
80136;SDS011;69466;55.948;37.484;2023-06-14T06:32:50;11.48;;;3.40;;
80136;SDS011;69466;55.948;37.484;2023-06-14T06:35:16;8.65;;;2.85;;
80136;SDS011;69466;55.948;37.484;2023-06-14T06:37:42;5.75;;;2.83;;
80136;SDS011;69466;55.948;37.484;2023-06-14T06:40:09;6.93;;;2.60;;
80136;SDS011;69466;55.948;37.484;2023-06-14T06:42:35;18.30;;;4.95;;
80136;SDS011;69466;55.948;37.484;2023-06-14T06:45:05;5.53;;;2.55;;
80136;SDS011;69466;55.948;37.484;2023-06-14T06:47:33;5.30;;;2.30;;
80136;SDS011;69466;55.948;37.484;2023-06-14T06:49:59;8.15;;;2.75;;
80136;SDS011;69466;55.948;37.484;2023-06-14T06:52:25;6.07;;;3.13;;
80136;SDS011;69466;55.948;37.484;2023-06-14T06:54:51;6.63;;;2.33;;
80136;SDS011;69466;55.948;37.484;2023-06-14T06:57:20;7.55;;;2.22;;
80136;SDS011;69466;55.948;37.484;2023-06-14T06:59:48;6.38;;;2.40;;
80136;SDS011;69466;55.948;37.484;2023-06-14T07:02:15;6.43;;;2.70;;
80136;SDS011;69466;55.948;37.484;2023-06-14T07:04:41;10.40;;;3.58;;
80136;SDS011;69466;55.948;37.484;2023-06-14T07:07:07;16.80;;;2.95;;
80136;SDS011;69466;55.948;37.484;2023-06-14T07:09:35;8.50;;;2.83;;
80136;SDS011;69466;55.948;37.484;2023-06-14T07:12:01;5.47;;;2.13;;
80136;SDS011;69466;55.948;37.484;2023-06-14T07:14:27;4.97;;;2.30;;
80136;SDS011;69466;55.948;37.484;2023-06-14T07:16:55;5.07;;;2.45;;
80136;SDS011;69466;55.948;37.484;2023-06-14T07:19:21;4.43;;;2.17;;
80136;SDS011;69466;55.948;37.484;2023-06-14T07:21:47;5.55;;;2.30;;
80136;SDS011;69466;55.948;37.484;2023-06-14T07:24:13;4.20;;;2.28;;
80136;SDS011;69466;55.948;37.484;2023-06-14T07:26:39;5.53;;;2.80;;
80136;SDS011;69466;55.948;37.484;2023-06-14T07:29:04;11.23;;;2.70;;
80136;SDS011;69466;55.948;37.484;2023-06-14T07:31:30;5.60;;;2.38;;
80136;SDS011;69466;55.948;37.484;2023-06-14T07:33:56;7.47;;;2.85;;
80136;SDS011;69466;55.948;37.484;2023-06-14T07:36:22;11.43;;;3.03;;
80136;SDS011;69466;55.948;37.484;2023-06-14T07:38:48;6.55;;;2.90;;
80136;SDS011;69466;55.948;37.484;2023-06-14T07:41:15;8.50;;;2.75;;
80136;SDS011;69466;55.948;37.484;2023-06-14T07:43:41;5.95;;;2.90;;
80136;SDS011;69466;55.948;37.484;2023-06-14T07:46:07;12.35;;;3.67;;
80136;SDS011;69466;55.948;37.484;2023-06-14T07:48:34;7.03;;;3.33;;
80136;SDS011;69466;55.948;37.484;2023-06-14T07:51:00;7.22;;;3.08;;
80136;SDS011;69466;55.948;37.484;2023-06-14T07:53:26;8.90;;;2.88;;
80136;SDS011;69466;55.948;37.484;2023-06-14T07:55:52;9.48;;;3.25;;
80136;SDS011;69466;55.948;37.484;2023-06-14T07:58:18;5.75;;;2.83;;
80136;SDS011;69466;55.948;37.484;2023-06-14T08:00:44;7.15;;;2.42;;
80136;SDS011;69466;55.948;37.484;2023-06-14T08:03:11;7.10;;;3.10;;
80136;SDS011;69466;55.948;37.484;2023-06-14T08:05:37;11.00;;;2.88;;
80136;SDS011;69466;55.948;37.484;2023-06-14T08:08:02;9.10;;;2.60;;
80136;SDS011;69466;55.948;37.484;2023-06-14T08:10:29;7.38;;;3.00;;
80136;SDS011;69466;55.948;37.484;2023-06-14T08:12:54;11.55;;;2.83;;
80136;SDS011;69466;55.948;37.484;2023-06-14T08:15:20;12.68;;;3.60;;
80136;SDS011;69466;55.948;37.484;2023-06-14T08:17:46;8.02;;;2.95;;
80136;SDS011;69466;55.948;37.484;2023-06-14T08:20:12;9.82;;;2.38;;
80136;SDS011;69466;55.948;37.484;2023-06-14T08:22:42;6.35;;;3.20;;
80136;SDS011;69466;55.948;37.484;2023-06-14T08:25:08;6.25;;;3.10;;
80136;SDS011;69466;55.948;37.484;2023-06-14T08:27:35;5.05;;;2.50;;
80136;SDS011;69466;55.948;37.484;2023-06-14T08:30:01;6.95;;;2.63;;
80136;SDS011;69466;55.948;37.484;2023-06-14T08:32:30;6.43;;;3.10;;
80136;SDS011;69466;55.948;37.484;2023-06-14T08:34:56;7.22;;;3.42;;
80136;SDS011;69466;55.948;37.484;2023-06-14T08:37:22;6.32;;;2.92;;
80136;SDS011;69466;55.948;37.484;2023-06-14T08:39:47;7.53;;;2.78;;
80136;SDS011;69466;55.948;37.484;2023-06-14T08:42:14;10.95;;;3.85;;
80136;SDS011;69466;55.948;37.484;2023-06-14T08:44:40;13.55;;;3.38;;
80136;SDS011;69466;55.948;37.484;2023-06-14T08:47:07;6.53;;;2.85;;
80136;SDS011;69466;55.948;37.484;2023-06-14T08:49:34;6.82;;;2.83;;
80136;SDS011;69466;55.948;37.484;2023-06-14T08:52:03;6.65;;;2.47;;
80136;SDS011;69466;55.948;37.484;2023-06-14T08:54:32;9.30;;;3.63;;
80136;SDS011;69466;55.948;37.484;2023-06-14T08:57:02;7.63;;;3.40;;
80136;SDS011;69466;55.948;37.484;2023-06-14T08:59:29;8.80;;;2.90;;
80136;SDS011;69466;55.948;37.484;2023-06-14T09:01:56;7.22;;;3.00;;
80136;SDS011;69466;55.948;37.484;2023-06-14T09:04:25;4.40;;;2.60;;
80136;SDS011;69466;55.948;37.484;2023-06-14T09:06:55;6.82;;;2.95;;
80136;SDS011;69466;55.948;37.484;2023-06-14T09:09:22;6.05;;;2.40;;
80136;SDS011;69466;55.948;37.484;2023-06-14T09:11:51;7.43;;;2.80;;
80136;SDS011;69466;55.948;37.484;2023-06-14T09:14:18;7.95;;;3.25;;
80136;SDS011;69466;55.948;37.484;2023-06-14T09:16:44;7.45;;;2.90;;
80136;SDS011;69466;55.948;37.484;2023-06-14T09:19:20;6.82;;;3.00;;
80136;SDS011;69466;55.948;37.484;2023-06-14T09:21:47;5.40;;;2.55;;
80136;SDS011;69466;55.948;37.484;2023-06-14T09:24:14;8.13;;;2.88;;
80136;SDS011;69466;55.948;37.484;2023-06-14T09:26:40;9.27;;;3.15;;
80136;SDS011;69466;55.948;37.484;2023-06-14T09:29:06;7.40;;;2.70;;
80136;SDS011;69466;55.948;37.484;2023-06-14T09:31:32;7.85;;;3.42;;
80136;SDS011;69466;55.948;37.484;2023-06-14T09:33:58;7.43;;;3.05;;
80136;SDS011;69466;55.948;37.484;2023-06-14T09:36:27;5.60;;;2.30;;
80136;SDS011;69466;55.948;37.484;2023-06-14T09:38:54;6.57;;;2.28;;
80136;SDS011;69466;55.948;37.484;2023-06-14T09:41:42;5.07;;;2.80;;
80136;SDS011;69466;55.948;37.484;2023-06-14T09:44:09;5.72;;;2.60;;
80136;SDS011;69466;55.948;37.484;2023-06-14T09:46:36;5.25;;;2.42;;
80136;SDS011;69466;55.948;37.484;2023-06-14T09:49:04;5.30;;;2.40;;
80136;SDS011;69466;55.948;37.484;2023-06-14T09:51:31;6.35;;;2.47;;
80136;SDS011;69466;55.948;37.484;2023-06-14T09:54:06;7.43;;;2.53;;
80136;SDS011;69466;55.948;37.484;2023-06-14T09:59:04;5.10;;;2.40;;
80136;SDS011;69466;55.948;37.484;2023-06-14T10:01:31;4.85;;;2.63;;
80136;SDS011;69466;55.948;37.484;2023-06-14T10:04:03;4.80;;;2.40;;
80136;SDS011;69466;55.948;37.484;2023-06-14T10:06:30;4.57;;;2.33;;
80136;SDS011;69466;55.948;37.484;2023-06-14T10:09:02;4.90;;;2.60;;
80136;SDS011;69466;55.948;37.484;2023-06-14T10:11:29;6.28;;;2.80;;
80136;SDS011;69466;55.948;37.484;2023-06-14T10:13:55;5.15;;;2.42;;
80136;SDS011;69466;55.948;37.484;2023-06-14T10:16:31;5.05;;;2.45;;
80136;SDS011;69466;55.948;37.484;2023-06-14T10:24:42;5.47;;;2.90;;
80136;SDS011;69466;55.948;37.484;2023-06-14T10:27:09;4.93;;;2.30;;
80136;SDS011;69466;55.948;37.484;2023-06-14T10:32:20;4.50;;;2.22;;
80136;SDS011;69466;55.948;37.484;2023-06-14T10:34:53;4.38;;;2.40;;
80136;SDS011;69466;55.948;37.484;2023-06-14T10:37:23;5.18;;;2.22;;
80136;SDS011;69466;55.948;37.484;2023-06-14T10:39:52;5.47;;;2.08;;
80136;SDS011;69466;55.948;37.484;2023-06-14T10:42:18;8.32;;;2.65;;
80136;SDS011;69466;55.948;37.484;2023-06-14T10:44:45;6.63;;;2.95;;
80136;SDS011;69466;55.948;37.484;2023-06-14T10:52:21;5.00;;;2.40;;
80136;SDS011;69466;55.948;37.484;2023-06-14T10:55:02;4.72;;;2.17;;
80136;SDS011;69466;55.948;37.484;2023-06-14T10:57:46;7.30;;;2.30;;
80136;SDS011;69466;55.948;37.484;2023-06-14T11:00:21;6.68;;;2.17;;
80136;SDS011;69466;55.948;37.484;2023-06-14T11:05:17;6.00;;;2.65;;
80136;SDS011;69466;55.948;37.484;2023-06-14T11:10:38;4.78;;;2.20;;
80136;SDS011;69466;55.948;37.484;2023-06-14T11:13:06;6.07;;;2.67;;
80136;SDS011;69466;55.948;37.484;2023-06-14T11:15:34;5.97;;;2.70;;
80136;SDS011;69466;55.948;37.484;2023-06-14T11:18:06;6.28;;;2.47;;
80136;SDS011;69466;55.948;37.484;2023-06-14T11:20:35;5.05;;;2.40;;
80136;SDS011;69466;55.948;37.484;2023-06-14T11:23:02;6.57;;;2.72;;
80136;SDS011;69466;55.948;37.484;2023-06-14T11:25:29;11.10;;;2.90;;
80136;SDS011;69466;55.948;37.484;2023-06-14T11:27:55;7.65;;;2.72;;
80136;SDS011;69466;55.948;37.484;2023-06-14T11:30:22;5.80;;;2.97;;
80136;SDS011;69466;55.948;37.484;2023-06-14T11:32:49;6.75;;;2.60;;
80136;SDS011;69466;55.948;37.484;2023-06-14T11:35:16;5.18;;;2.50;;
80136;SDS011;69466;55.948;37.484;2023-06-14T11:37:42;6.30;;;3.30;;
80136;SDS011;69466;55.948;37.484;2023-06-14T11:40:10;6.25;;;2.50;;
80136;SDS011;69466;55.948;37.484;2023-06-14T11:42:37;6.13;;;2.20;;
80136;SDS011;69466;55.948;37.484;2023-06-14T11:45:08;6.65;;;2.83;;
80136;SDS011;69466;55.948;37.484;2023-06-14T11:47:38;6.75;;;2.53;;
80136;SDS011;69466;55.948;37.484;2023-06-14T11:50:06;8.93;;;2.60;;
80136;SDS011;69466;55.948;37.484;2023-06-14T11:52:33;7.82;;;2.35;;
80136;SDS011;69466;55.948;37.484;2023-06-14T11:55:02;7.18;;;2.58;;
80136;SDS011;69466;55.948;37.484;2023-06-14T11:57:35;10.60;;;2.70;;
80136;SDS011;69466;55.948;37.484;2023-06-14T12:00:07;7.85;;;3.00;;
80136;SDS011;69466;55.948;37.484;2023-06-14T12:02:37;5.70;;;3.22;;
80136;SDS011;69466;55.948;37.484;2023-06-14T12:05:05;4.25;;;2.58;;
80136;SDS011;69466;55.948;37.484;2023-06-14T12:07:38;5.25;;;2.42;;
80136;SDS011;69466;55.948;37.484;2023-06-14T12:10:07;4.53;;;2.22;;
80136;SDS011;69466;55.948;37.484;2023-06-14T12:12:36;7.22;;;2.75;;
80136;SDS011;69466;55.948;37.484;2023-06-14T12:15:04;5.55;;;2.90;;
80136;SDS011;69466;55.948;37.484;2023-06-14T12:17:32;5.32;;;2.83;;
80136;SDS011;69466;55.948;37.484;2023-06-14T12:19:59;6.80;;;3.17;;
80136;SDS011;69466;55.948;37.484;2023-06-14T12:22:55;4.63;;;2.40;;
80136;SDS011;69466;55.948;37.484;2023-06-14T12:25:23;6.07;;;2.35;;
80136;SDS011;69466;55.948;37.484;2023-06-14T12:27:53;6.10;;;3.25;;
80136;SDS011;69466;55.948;37.484;2023-06-14T12:30:21;4.65;;;2.25;;
80136;SDS011;69466;55.948;37.484;2023-06-14T12:32:47;4.82;;;2.50;;
80136;SDS011;69466;55.948;37.484;2023-06-14T12:35:14;6.47;;;2.83;;
80136;SDS011;69466;55.948;37.484;2023-06-14T12:37:40;4.80;;;2.45;;
80136;SDS011;69466;55.948;37.484;2023-06-14T12:40:06;9.57;;;2.85;;
80136;SDS011;69466;55.948;37.484;2023-06-14T12:42:33;7.38;;;2.70;;
80136;SDS011;69466;55.948;37.484;2023-06-14T12:45:02;7.63;;;3.05;;
80136;SDS011;69466;55.948;37.484;2023-06-14T12:47:29;7.82;;;2.97;;
80136;SDS011;69466;55.948;37.484;2023-06-14T12:49:55;6.40;;;3.15;;
80136;SDS011;69466;55.948;37.484;2023-06-14T12:52:20;6.32;;;2.88;;
80136;SDS011;69466;55.948;37.484;2023-06-14T12:54:46;4.70;;;2.70;;
80136;SDS011;69466;55.948;37.484;2023-06-14T12:57:12;5.10;;;2.50;;
80136;SDS011;69466;55.948;37.484;2023-06-14T12:59:38;8.73;;;2.63;;
80136;SDS011;69466;55.948;37.484;2023-06-14T13:02:13;5.85;;;3.15;;
80136;SDS011;69466;55.948;37.484;2023-06-14T13:04:40;9.57;;;3.83;;
80136;SDS011;69466;55.948;37.484;2023-06-14T13:07:06;11.07;;;3.60;;
80136;SDS011;69466;55.948;37.484;2023-06-14T13:09:32;9.20;;;3.55;;
80136;SDS011;69466;55.948;37.484;2023-06-14T13:11:58;7.85;;;3.15;;
80136;SDS011;69466;55.948;37.484;2023-06-14T13:14:24;7.47;;;2.45;;
80136;SDS011;69466;55.948;37.484;2023-06-14T13:16:50;7.88;;;3.25;;
80136;SDS011;69466;55.948;37.484;2023-06-14T13:19:16;4.40;;;2.50;;
80136;SDS011;69466;55.948;37.484;2023-06-14T13:21:41;8.10;;;3.60;;
80136;SDS011;69466;55.948;37.484;2023-06-14T13:24:07;9.25;;;2.88;;
80136;SDS011;69466;55.948;37.484;2023-06-14T13:26:33;5.50;;;2.53;;
80136;SDS011;69466;55.948;37.484;2023-06-14T13:29:00;5.85;;;2.50;;
80136;SDS011;69466;55.948;37.484;2023-06-14T13:31:26;5.45;;;2.60;;
80136;SDS011;69466;55.948;37.484;2023-06-14T13:33:52;5.43;;;2.53;;
80136;SDS011;69466;55.948;37.484;2023-06-14T13:36:17;7.53;;;3.00;;
80136;SDS011;69466;55.948;37.484;2023-06-14T13:38:43;6.45;;;2.45;;
80136;SDS011;69466;55.948;37.484;2023-06-14T13:41:09;6.65;;;2.80;;
80136;SDS011;69466;55.948;37.484;2023-06-14T13:43:35;8.02;;;2.55;;
80136;SDS011;69466;55.948;37.484;2023-06-14T13:46:01;5.78;;;2.70;;
80136;SDS011;69466;55.948;37.484;2023-06-14T13:48:27;5.40;;;2.80;;
80136;SDS011;69466;55.948;37.484;2023-06-14T13:50:53;6.03;;;2.92;;
80136;SDS011;69466;55.948;37.484;2023-06-14T13:53:19;6.85;;;2.42;;
80136;SDS011;69466;55.948;37.484;2023-06-14T13:55:45;7.55;;;2.65;;
80136;SDS011;69466;55.948;37.484;2023-06-14T13:58:10;8.48;;;3.15;;
80136;SDS011;69466;55.948;37.484;2023-06-14T14:00:36;4.45;;;2.75;;
80136;SDS011;69466;55.948;37.484;2023-06-14T14:03:06;6.85;;;3.15;;
80136;SDS011;69466;55.948;37.484;2023-06-14T14:05:32;10.02;;;2.80;;
80136;SDS011;69466;55.948;37.484;2023-06-14T14:07:58;9.38;;;3.15;;
80136;SDS011;69466;55.948;37.484;2023-06-14T14:10:24;5.57;;;3.00;;
80136;SDS011;69466;55.948;37.484;2023-06-14T14:12:50;8.65;;;2.70;;
80136;SDS011;69466;55.948;37.484;2023-06-14T14:15:18;6.03;;;2.55;;
80136;SDS011;69466;55.948;37.484;2023-06-14T14:17:44;4.63;;;2.65;;
80136;SDS011;69466;55.948;37.484;2023-06-14T14:20:10;7.05;;;2.78;;
80136;SDS011;69466;55.948;37.484;2023-06-14T14:22:41;6.13;;;2.67;;
80136;SDS011;69466;55.948;37.484;2023-06-14T14:25:08;6.25;;;2.90;;
80136;SDS011;69466;55.948;37.484;2023-06-14T14:27:35;10.50;;;3.38;;
80136;SDS011;69466;55.948;37.484;2023-06-14T14:30:01;5.75;;;2.92;;
80136;SDS011;69466;55.948;37.484;2023-06-14T14:32:31;5.47;;;2.88;;
80136;SDS011;69466;55.948;37.484;2023-06-14T14:34:57;7.47;;;3.15;;
80136;SDS011;69466;55.948;37.484;2023-06-14T14:37:23;8.23;;;2.88;;
80136;SDS011;69466;55.948;37.484;2023-06-14T14:39:51;5.88;;;2.88;;
80136;SDS011;69466;55.948;37.484;2023-06-14T14:42:17;6.05;;;2.40;;
80136;SDS011;69466;55.948;37.484;2023-06-14T14:44:43;6.97;;;2.58;;
80136;SDS011;69466;55.948;37.484;2023-06-14T14:47:10;7.25;;;2.80;;
80136;SDS011;69466;55.948;37.484;2023-06-14T14:49:35;4.75;;;2.45;;
80136;SDS011;69466;55.948;37.484;2023-06-14T14:52:01;4.95;;;2.50;;
80136;SDS011;69466;55.948;37.484;2023-06-14T14:54:27;6.57;;;2.45;;
80136;SDS011;69466;55.948;37.484;2023-06-14T14:56:54;6.30;;;2.72;;
80136;SDS011;69466;55.948;37.484;2023-06-14T14:59:20;5.32;;;2.40;;
80136;SDS011;69466;55.948;37.484;2023-06-14T15:01:47;4.72;;;2.15;;